Time;durP1;ratioP1;P1;durP2;ratioP2;P2;SDS_P1;SDS_P2;PMS_P1;PMS_P2;Temp;Humidity;BMP_temperature;BMP_pressure;BME280_temperature;BME280_humidity;BME280_pressure;Samples;Min_cycle;Max_cycle;Signal;HPM_P1;HPM_P2
2021/12/27 00:00:21;;;;;;;;;;;;;;;7.64;100.00;97169.91;5036512;28;19924;-78
2021/12/27 00:02:50;;;;;;;;;;;;;;;7.67;100.00;97173.78;5066064;28;19939;-78
2021/12/27 00:05:17;;;;;;;;;;;;;;;7.16;100.00;97167.56;5055751;28;19928;-78
2021/12/27 00:07:48;;;;;;;;;;;;;;;7.73;100.00;97169.97;5074169;28;20455;-78
2021/12/27 00:10:15;;;;;;;;;;;;;;;7.88;100.00;97167.47;5074330;28;19925;-78
2021/12/27 00:12:43;;;;;;;;;;;;;;;7.97;100.00;97162.75;5064858;28;19928;-79
2021/12/27 00:15:10;;;;;;;;;;;;;;;8.05;100.00;97154.94;5056496;28;19951;-78
2021/12/27 00:17:39;;;;;;;;;;;;;;;8.06;100.00;97150.94;5073987;28;20116;-78
2021/12/27 00:20:07;;;;;;;;;;;;;;;8.12;100.00;97144.34;5056163;28;19952;-78
2021/12/27 00:22:35;;;;;;;;;;;;;;;8.15;100.00;97140.66;5070557;28;19924;-78
2021/12/27 00:25:05;;;;;;;;;;;;;;;8.21;100.00;97135.28;5033967;28;19998;-79
2021/12/27 00:27:39;;;;;;;;;;;;;;;8.17;100.00;97129.84;5050497;28;21326;-79
2021/12/27 00:30:10;;;;;;;;;;;;;;;8.16;100.00;97127.53;5071430;28;19932;-79
2021/12/27 00:32:38;;;;;;;;;;;;;;;7.91;100.00;97131.22;5073567;28;19955;-79
2021/12/27 00:35:08;;;;;;;;;;;;;;;7.77;100.00;97128.16;5056295;28;19935;-79
2021/12/27 00:37:35;;;;;;;;;;;;;;;8.08;100.00;97124.22;5052893;28;19924;-78
2021/12/27 00:40:03;;;;;;;;;;;;;;;8.17;100.00;97132.63;5046813;28;19925;-79
2021/12/27 00:42:32;;;;;;;;;;;;;;;8.06;100.00;97128.69;5065509;28;19925;-78
2021/12/27 00:45:01;;;;;;;;;;;;;;;8.00;100.00;97125.72;5036022;28;19932;-79
2021/12/27 00:47:28;;;;;;;;;;;;;;;8.13;100.00;97126.44;5053560;28;20282;-78
2021/12/27 00:49:55;;;;;;;;;;;;;;;8.20;100.00;97131.72;5035964;28;19932;-78
2021/12/27 00:52:22;;;;;;;;;;;;;;;8.24;100.00;97118.47;5050574;28;20379;-78
2021/12/27 00:54:49;;;;;;;;;;;;;;;8.26;100.00;97120.81;5073365;28;20598;-78
2021/12/27 00:57:16;;;;;;;;;;;;;;;7.78;100.00;97116.59;5073602;28;19925;-78
2021/12/27 00:59:43;;;;;;;;;;;;;;;8.04;100.00;97123.56;5072844;28;19928;-78
2021/12/27 01:02:10;;;;;;;;;;;;;;;8.16;100.00;97122.75;5073447;28;19931;-78
2021/12/27 01:04:37;;;;;;;;;;;;;;;8.17;100.00;97107.59;5073396;28;19932;-78
2021/12/27 01:07:05;;;;;;;;;;;;;;;8.17;100.00;97112.38;5073593;28;20272;-78
2021/12/27 01:12:24;;;;;;;;;;;;;;;8.16;100.00;97105.28;5073578;28;20279;-78
2021/12/27 01:17:39;;;;;;;;;;;;;;;7.92;100.00;97112.53;5067405;28;20427;-78
2021/12/27 01:20:10;;;;;;;;;;;;;;;7.56;100.00;97096.31;5064151;28;20035;-78
2021/12/27 01:22:38;;;;;;;;;;;;;;;7.57;100.00;97106.22;5077067;28;19928;-78
2021/12/27 01:25:09;;;;;;;;;;;;;;;7.59;100.00;97098.19;5076497;28;20394;-78
2021/12/27 01:27:36;;;;;;;;;;;;;;;7.56;100.00;97095.56;5039428;28;19932;-79
2021/12/27 01:30:04;;;;;;;;;;;;;;;7.60;100.00;97102.56;5039579;28;20027;-78
2021/12/27 01:32:37;;;;;;;;;;;;;;;7.35;100.00;97092.28;5056375;28;20048;-78
2021/12/27 01:35:04;;;;;;;;;;;;;;;7.32;100.00;97086.84;5055802;28;19925;-78
2021/12/27 01:37:33;;;;;;;;;;;;;;;7.64;100.00;97085.72;5076419;28;19928;-78
2021/12/27 01:40:00;;;;;;;;;;;;;;;7.87;100.00;97077.75;5042664;28;20316;-78
2021/12/27 01:42:29;;;;;;;;;;;;;;;8.02;100.00;97073.19;5076757;28;19925;-78
2021/12/27 01:44:58;;;;;;;;;;;;;;;7.92;100.00;97084.72;5056293;28;19928;-79
2021/12/27 01:47:27;;;;;;;;;;;;;;;7.36;100.00;97087.53;5056572;28;19929;-78
2021/12/27 01:49:55;;;;;;;;;;;;;;;7.43;100.00;97081.72;5039323;28;20466;-78
2021/12/27 01:52:22;;;;;;;;;;;;;;;7.58;100.00;97096.66;5056482;28;19931;-79
2021/12/27 01:54:52;;;;;;;;;;;;;;;8.04;100.00;97098.53;5056703;28;19925;-78
2021/12/27 01:57:19;;;;;;;;;;;;;;;8.18;100.00;97092.44;5022387;28;20018;-78
2021/12/27 01:59:46;;;;;;;;;;;;;;;7.91;100.00;97088.72;5056240;28;20431;-78
2021/12/27 02:02:24;;;;;;;;;;;;;;;8.15;100.00;97093.38;5038337;28;19931;-79
2021/12/27 02:04:52;;;;;;;;;;;;;;;8.11;100.00;97089.94;5065751;28;19928;-78
2021/12/27 02:07:19;;;;;;;;;;;;;;;8.25;100.00;97085.88;5058508;28;19960;-78
2021/12/27 02:09:58;;;;;;;;;;;;;;;8.21;100.00;97093.56;5058472;28;19924;-78
2021/12/27 02:12:25;;;;;;;;;;;;;;;8.19;100.00;97082.91;5076276;28;19928;-78
2021/12/27 02:14:52;;;;;;;;;;;;;;;8.34;100.00;97083.94;5048634;28;19932;-79
2021/12/27 02:17:19;;;;;;;;;;;;;;;8.43;100.00;97081.19;5061998;28;19925;-79
2021/12/27 02:19:47;;;;;;;;;;;;;;;8.48;100.00;97077.03;5058317;28;19932;-78
2021/12/27 02:22:14;;;;;;;;;;;;;;;8.36;100.00;97081.44;5058164;28;19925;-78
2021/12/27 02:24:42;;;;;;;;;;;;;;;8.55;100.00;97074.75;5075581;28;19924;-78
2021/12/27 02:27:13;;;;;;;;;;;;;;;8.61;100.00;97074.94;5075223;28;20075;-79
2021/12/27 02:29:42;;;;;;;;;;;;;;;8.50;100.00;97069.00;5075155;28;19942;-78
2021/12/27 02:32:09;;;;;;;;;;;;;;;8.26;100.00;97065.16;5075850;28;19928;-78
2021/12/27 02:34:37;;;;;;;;;;;;;;;7.76;100.00;97063.44;5057430;28;19924;-78
2021/12/27 02:37:07;;;;;;;;;;;;;;;7.29;100.00;97059.97;5042241;28;19924;-78
2021/12/27 02:39:36;;;;;;;;;;;;;;;7.46;100.00;97066.91;5075721;28;19925;-78
2021/12/27 02:42:03;;;;;;;;;;;;;;;7.61;100.00;97070.75;5075614;28;19931;-78
2021/12/27 02:44:30;;;;;;;;;;;;;;;8.15;100.00;97065.53;5057314;28;19936;-79
2021/12/27 02:46:58;;;;;;;;;;;;;;;8.28;100.00;97052.38;5041156;28;19931;-78
2021/12/27 02:49:25;;;;;;;;;;;;;;;8.21;100.00;97063.72;5057739;28;19932;-79
2021/12/27 02:51:52;;;;;;;;;;;;;;;8.22;100.00;97053.38;5057544;28;19924;-78
2021/12/27 02:54:19;;;;;;;;;;;;;;;8.45;100.00;97053.66;5040621;28;19936;-78
2021/12/27 02:56:47;;;;;;;;;;;;;;;8.62;100.00;97049.41;5056868;28;20019;-78
2021/12/27 02:59:14;;;;;;;;;;;;;;;8.62;100.00;97029.94;5040857;28;20026;-79
2021/12/27 03:01:41;;;;;;;;;;;;;;;8.69;100.00;97035.19;5075274;28;19924;-79
2021/12/27 03:04:09;;;;;;;;;;;;;;;8.79;100.00;97033.22;5072748;28;19928;-78
2021/12/27 03:06:37;;;;;;;;;;;;;;;8.86;100.00;97039.28;5037659;28;19924;-78
2021/12/27 03:09:04;;;;;;;;;;;;;;;8.68;100.00;97041.22;5055083;28;19939;-79
2021/12/27 03:11:31;;;;;;;;;;;;;;;8.39;100.00;97033.22;5020879;28;19931;-78
2021/12/27 03:14:01;;;;;;;;;;;;;;;8.29;100.00;97037.22;5055211;28;19956;-79
2021/12/27 03:16:31;;;;;;;;;;;;;;;8.15;100.00;97026.59;5037318;28;19925;-78
2021/12/27 03:18:58;;;;;;;;;;;;;;;8.40;100.00;97020.91;5074192;28;19931;-78
2021/12/27 03:21:26;;;;;;;;;;;;;;;8.33;100.00;97010.03;5074803;28;19929;-78
2021/12/27 03:23:57;;;;;;;;;;;;;;;8.15;100.00;97014.72;5074714;28;19970;-78
2021/12/27 03:26:24;;;;;;;;;;;;;;;8.13;100.00;97017.19;5055360;28;19963;-78
2021/12/27 03:28:51;;;;;;;;;;;;;;;8.21;100.00;97018.47;5054442;28;19956;-78
2021/12/27 03:31:19;;;;;;;;;;;;;;;8.30;100.00;97016.50;5054771;28;19925;-78
2021/12/27 03:33:47;;;;;;;;;;;;;;;8.26;100.00;97021.44;5036967;28;20426;-78
2021/12/27 03:36:15;;;;;;;;;;;;;;;8.48;100.00;97013.78;5071693;28;19924;-78
2021/12/27 03:38:48;;;;;;;;;;;;;;;8.62;100.00;97016.00;5074422;28;19924;-78
2021/12/27 03:41:17;;;;;;;;;;;;;;;8.70;100.00;97010.94;5055732;28;19924;-78
2021/12/27 03:43:44;;;;;;;;;;;;;;;8.75;100.00;97001.97;5074483;28;19924;-79
2021/12/27 03:46:12;;;;;;;;;;;;;;;8.26;100.00;96998.41;5057193;28;19932;-78
2021/12/27 03:48:42;;;;;;;;;;;;;;;7.67;100.00;96991.13;5037036;28;19931;-78
2021/12/27 03:51:09;;;;;;;;;;;;;;;8.00;100.00;96997.78;5054267;28;19931;-78
2021/12/27 03:53:36;;;;;;;;;;;;;;;8.42;100.00;96990.59;5043673;28;19924;-78
2021/12/27 03:56:03;;;;;;;;;;;;;;;8.40;100.00;96995.84;5074116;28;19925;-78
2021/12/27 03:58:44;;;;;;;;;;;;;;;8.37;100.00;96993.97;5038138;28;20002;-78
2021/12/27 04:01:15;;;;;;;;;;;;;;;8.41;100.00;96994.59;5038218;28;19928;-78
2021/12/27 04:03:43;;;;;;;;;;;;;;;8.62;100.00;96987.41;5036248;28;20331;-78
2021/12/27 04:06:12;;;;;;;;;;;;;;;8.55;100.00;96988.47;5054207;28;19990;-78
2021/12/27 04:08:39;;;;;;;;;;;;;;;8.59;100.00;96974.41;5057583;28;20263;-78
2021/12/27 04:11:06;;;;;;;;;;;;;;;8.58;100.00;96976.41;5074067;28;19991;-78
2021/12/27 04:13:41;;;;;;;;;;;;;;;8.70;100.00;96972.75;5074030;28;19931;-78
2021/12/27 04:16:09;;;;;;;;;;;;;;;8.75;100.00;96977.69;5055974;28;19954;-78
2021/12/27 04:18:39;;;;;;;;;;;;;;;8.88;100.00;96967.19;5056623;28;19925;-78
2021/12/27 04:21:07;;;;;;;;;;;;;;;8.91;100.00;96965.50;5036078;28;19980;-78
2021/12/27 04:23:34;;;;;;;;;;;;;;;8.96;100.00;96974.03;5035905;28;19948;-78
2021/12/27 04:26:01;;;;;;;;;;;;;;;9.01;100.00;96964.28;5053823;28;19967;-78
2021/12/27 04:28:28;;;;;;;;;;;;;;;9.00;100.00;96969.06;5036827;28;20379;-78
2021/12/27 04:30:58;;;;;;;;;;;;;;;8.96;100.00;96968.47;5073972;28;19925;-78
2021/12/27 04:33:25;;;;;;;;;;;;;;;8.94;100.00;96961.78;5073792;28;19928;-78
2021/12/27 04:35:53;;;;;;;;;;;;;;;8.77;100.00;96955.72;5055689;28;19928;-77
2021/12/27 04:38:20;;;;;;;;;;;;;;;8.60;100.00;96954.44;5072981;28;19928;-78
2021/12/27 04:40:49;;;;;;;;;;;;;;;8.45;100.00;96953.50;5048770;28;20023;-78
2021/12/27 04:43:20;;;;;;;;;;;;;;;8.73;100.00;96952.31;5042380;28;19930;-78
2021/12/27 04:45:49;;;;;;;;;;;;;;;8.73;100.00;96955.13;5073037;28;20019;-78
2021/12/27 04:48:17;;;;;;;;;;;;;;;8.68;100.00;96952.16;5072650;28;19924;-78
2021/12/27 04:50:44;;;;;;;;;;;;;;;8.79;100.00;96946.91;5074201;28;19931;-78
2021/12/27 04:53:11;;;;;;;;;;;;;;;8.81;100.00;96939.66;5077284;28;19974;-78
2021/12/27 04:55:40;;;;;;;;;;;;;;;8.50;100.00;96938.97;5059767;28;19928;-78
2021/12/27 04:58:09;;;;;;;;;;;;;;;7.84;100.00;96945.19;5059761;28;19947;-78
2021/12/27 05:00:39;;;;;;;;;;;;;;;7.86;100.00;96948.28;5077403;28;19931;-78
2021/12/27 05:03:06;;;;;;;;;;;;;;;7.79;100.00;96954.13;5076208;28;19947;-77
2021/12/27 05:05:33;;;;;;;;;;;;;;;7.79;100.00;96956.91;5077499;28;20011;-77
2021/12/27 05:08:00;;;;;;;;;;;;;;;7.53;100.00;96955.50;5055011;28;19975;-77
2021/12/27 05:10:28;;;;;;;;;;;;;;;8.23;100.00;96960.38;5039559;28;20678;-78
2021/12/27 05:12:58;;;;;;;;;;;;;;;8.44;100.00;96954.72;5057486;28;19925;-78
2021/12/27 05:15:25;;;;;;;;;;;;;;;8.55;100.00;96940.38;5057241;28;20296;-77
2021/12/27 05:17:54;;;;;;;;;;;;;;;8.82;100.00;96938.41;5067499;28;20003;-78
2021/12/27 05:20:22;;;;;;;;;;;;;;;8.96;100.00;96929.47;5077197;28;20411;-78
2021/12/27 05:22:49;;;;;;;;;;;;;;;8.61;100.00;96913.47;5042810;28;19948;-78
2021/12/27 05:25:16;;;;;;;;;;;;;;;8.27;100.00;96916.50;5077234;28;20330;-78
2021/12/27 05:27:44;;;;;;;;;;;;;;;7.93;100.00;96906.31;5076388;28;20410;-78
2021/12/27 05:30:14;;;;;;;;;;;;;;;7.84;100.00;96905.50;5076924;28;19925;-78
2021/12/27 05:32:44;;;;;;;;;;;;;;;8.01;100.00;96910.34;5071277;28;20016;-78
2021/12/27 05:35:14;;;;;;;;;;;;;;;8.43;100.00;96919.81;5034809;28;19989;-78
2021/12/27 05:37:44;;;;;;;;;;;;;;;8.57;100.00;96910.84;5058853;28;20437;-78
2021/12/27 05:40:13;;;;;;;;;;;;;;;8.37;100.00;96907.72;5042733;28;19924;-78
2021/12/27 05:42:41;;;;;;;;;;;;;;;8.11;100.00;96903.59;5042515;28;19971;-78
2021/12/27 05:45:10;;;;;;;;;;;;;;;8.71;100.00;96907.47;5076729;28;19930;-78
2021/12/27 05:47:39;;;;;;;;;;;;;;;8.77;100.00;96897.25;5076945;28;19924;-78
2021/12/27 05:50:07;;;;;;;;;;;;;;;8.61;100.00;96903.13;5057566;28;19924;-78
2021/12/27 05:52:34;;;;;;;;;;;;;;;8.20;100.00;96895.28;5076664;28;19946;-78
2021/12/27 05:55:05;;;;;;;;;;;;;;;8.47;100.00;96892.59;5059455;28;19979;-78
2021/12/27 05:57:33;;;;;;;;;;;;;;;8.32;100.00;96894.41;5058576;28;19928;-78
2021/12/27 06:00:00;;;;;;;;;;;;;;;7.68;100.00;96889.06;5057747;28;19970;-78
2021/12/27 06:02:27;;;;;;;;;;;;;;;7.60;100.00;96880.22;5038534;28;19932;-78
2021/12/27 06:04:54;;;;;;;;;;;;;;;7.43;100.00;96887.22;5055732;28;19925;-77
2021/12/27 06:07:22;;;;;;;;;;;;;;;8.14;100.00;96885.22;5056300;28;19925;-78
2021/12/27 06:09:49;;;;;;;;;;;;;;;8.31;100.00;96887.31;5038807;28;19925;-78
2021/12/27 06:12:16;;;;;;;;;;;;;;;8.04;100.00;96873.28;5074046;28;20041;-78
2021/12/27 06:14:43;;;;;;;;;;;;;;;7.55;100.00;96877.25;5076085;28;20044;-77
2021/12/27 06:17:10;;;;;;;;;;;;;;;7.64;100.00;96875.31;5058124;28;20319;-77
2021/12/27 06:19:38;;;;;;;;;;;;;;;7.35;100.00;96885.94;5075999;28;20279;-77
2021/12/27 06:22:05;;;;;;;;;;;;;;;7.68;100.00;96878.72;5076223;28;19924;-77
2021/12/27 06:24:32;;;;;;;;;;;;;;;7.74;100.00;96879.66;5076311;28;19925;-78
2021/12/27 06:26:59;;;;;;;;;;;;;;;7.93;100.00;96875.72;5075080;28;19924;-78
2021/12/27 06:29:26;;;;;;;;;;;;;;;8.36;100.00;96864.44;5058144;28;20011;-78
2021/12/27 06:31:55;;;;;;;;;;;;;;;8.18;100.00;96864.34;5041696;28;19932;-78
2021/12/27 06:34:22;;;;;;;;;;;;;;;8.27;100.00;96861.63;5075971;28;19932;-77
2021/12/27 06:36:49;;;;;;;;;;;;;;;8.40;100.00;96856.72;5070700;28;19925;-77
2021/12/27 06:39:19;;;;;;;;;;;;;;;8.06;100.00;96856.13;5037986;28;19932;-78
2021/12/27 06:41:46;;;;;;;;;;;;;;;8.02;100.00;96855.50;5055796;28;20443;-78
2021/12/27 06:44:13;;;;;;;;;;;;;;;7.89;100.00;96852.84;5059021;28;19959;-77
2021/12/27 06:46:41;;;;;;;;;;;;;;;7.87;100.00;96846.19;5057587;28;19928;-78
2021/12/27 06:49:08;;;;;;;;;;;;;;;7.82;100.00;96852.34;5040908;28;19946;-78
2021/12/27 06:51:35;;;;;;;;;;;;;;;7.80;100.00;96850.03;5057837;28;19931;-77
2021/12/27 06:54:04;;;;;;;;;;;;;;;7.68;100.00;96841.81;5057770;28;19924;-77
2021/12/27 06:56:31;;;;;;;;;;;;;;;7.84;100.00;96845.13;5056632;28;20027;-78
2021/12/27 06:58:59;;;;;;;;;;;;;;;7.96;100.00;96852.56;5057641;28;19975;-77
2021/12/27 07:01:26;;;;;;;;;;;;;;;7.82;100.00;96847.56;5075238;28;19936;-77
2021/12/27 07:03:53;;;;;;;;;;;;;;;7.72;100.00;96854.34;5075432;28;19931;-78
2021/12/27 07:06:22;;;;;;;;;;;;;;;7.74;100.00;96857.41;5055341;28;19931;-80
2021/12/27 07:08:48;;;;;;;;;;;;;;;7.71;100.00;96850.00;5057787;28;19931;-80
2021/12/27 07:11:15;;;;;;;;;;;;;;;7.80;100.00;96847.25;5024500;28;19931;-78
2021/12/27 07:13:42;;;;;;;;;;;;;;;8.05;100.00;96843.47;5057511;28;19952;-79
2021/12/27 07:16:11;;;;;;;;;;;;;;;8.18;100.00;96846.91;5075254;28;19928;-80
2021/12/27 07:18:39;;;;;;;;;;;;;;;8.43;100.00;96841.88;5057538;28;19958;-80
2021/12/27 07:21:06;;;;;;;;;;;;;;;8.49;100.00;96839.25;5074703;28;20090;-80
2021/12/27 07:23:33;;;;;;;;;;;;;;;8.66;100.00;96832.16;5086881;28;20032;-79
2021/12/27 07:26:01;;;;;;;;;;;;;;;8.59;100.00;96833.22;5058000;28;19950;-79
2021/12/27 07:28:28;;;;;;;;;;;;;;;8.58;100.00;96831.69;5089247;28;19931;-79
2021/12/27 07:30:55;;;;;;;;;;;;;;;8.45;100.00;96833.06;5047031;28;19924;-79
2021/12/27 07:33:25;;;;;;;;;;;;;;;8.66;100.00;96830.13;5058051;28;19951;-79
2021/12/27 07:35:52;;;;;;;;;;;;;;;8.55;100.00;96826.25;5081082;28;19932;-80
2021/12/27 07:38:19;;;;;;;;;;;;;;;8.80;100.00;96826.72;5069111;28;19970;-79
2021/12/27 07:40:46;;;;;;;;;;;;;;;8.34;100.00;96821.63;5056675;28;20003;-79
2021/12/27 07:43:13;;;;;;;;;;;;;;;8.33;100.00;96820.84;5060353;28;20022;-79
2021/12/27 07:45:40;;;;;;;;;;;;;;;8.47;100.00;96819.44;5076606;28;19928;-79
2021/12/27 07:48:09;;;;;;;;;;;;;;;8.11;100.00;96814.59;5083049;28;20283;-79
2021/12/27 07:50:37;;;;;;;;;;;;;;;8.47;100.00;96825.81;5056537;28;19925;-79
2021/12/27 07:53:04;;;;;;;;;;;;;;;8.03;100.00;96824.47;5077805;28;19947;-79
2021/12/27 07:55:32;;;;;;;;;;;;;;;8.49;100.00;96817.78;5048084;28;19935;-79
2021/12/27 07:57:59;;;;;;;;;;;;;;;8.49;100.00;96823.34;5027503;28;19931;-79
2021/12/27 08:00:27;;;;;;;;;;;;;;;8.54;100.00;96822.69;5053286;28;20023;-79
2021/12/27 08:02:55;;;;;;;;;;;;;;;8.74;100.00;96816.66;5069773;28;20070;-79
2021/12/27 08:05:22;;;;;;;;;;;;;;;8.88;100.00;96822.41;5079670;28;20274;-79
2021/12/27 08:07:49;;;;;;;;;;;;;;;8.53;100.00;96812.81;5071189;28;19960;-79
2021/12/27 08:10:16;;;;;;;;;;;;;;;8.75;100.00;96818.97;5048067;28;20282;-80
2021/12/27 08:12:44;;;;;;;;;;;;;;;8.39;100.00;96818.97;5074330;28;19925;-80
2021/12/27 08:15:11;;;;;;;;;;;;;;;8.69;100.00;96803.38;5067200;28;20271;-80
2021/12/27 08:17:39;;;;;;;;;;;;;;;9.03;100.00;96817.72;5052662;28;19924;-79
2021/12/27 08:20:08;;;;;;;;;;;;;;;9.15;100.00;96819.56;5076272;28;20364;-80
2021/12/27 08:22:36;;;;;;;;;;;;;;;8.87;100.00;96812.50;5080789;28;19924;-79
2021/12/27 08:25:07;;;;;;;;;;;;;;;8.82;100.00;96810.34;5044011;28;19925;-79
2021/12/27 08:27:40;;;;;;;;;;;;;;;8.74;100.00;96816.66;5072201;28;19924;-79
2021/12/27 08:30:09;;;;;;;;;;;;;;;8.84;100.00;96813.44;5058287;28;19932;-79
2021/12/27 08:32:37;;;;;;;;;;;;;;;8.75;100.00;96813.41;5073356;28;19932;-79
2021/12/27 08:35:04;;;;;;;;;;;;;;;8.44;100.00;96812.81;5073941;28;19969;-80
2021/12/27 08:37:32;;;;;;;;;;;;;;;8.79;100.00;96822.41;5022577;28;19933;-79
2021/12/27 08:39:59;;;;;;;;;;;;;;;8.73;100.00;96818.69;5069510;28;19928;-80
2021/12/27 08:42:27;;;;;;;;;;;;;;;8.98;100.00;96814.81;5052170;28;19931;-80
2021/12/27 08:44:58;;;;;;;;;;;;;;;8.49;100.00;96811.41;5051890;28;19933;-79
2021/12/27 08:47:26;;;;;;;;;;;;;;;8.58;100.00;96809.41;5043917;28;19960;-83
2021/12/27 08:49:53;;;;;;;;;;;;;;;8.88;100.00;96814.03;5066968;28;19925;-80
2021/12/27 08:52:31;;;;;;;;;;;;;;;8.91;100.00;96829.03;5073426;28;19939;-82
2021/12/27 08:55:01;;;;;;;;;;;;;;;9.14;100.00;96822.81;5055911;28;19947;-81
2021/12/27 08:57:29;;;;;;;;;;;;;;;9.10;100.00;96820.19;5055639;28;19924;-81
2021/12/27 08:59:56;;;;;;;;;;;;;;;9.16;100.00;96829.47;5055455;28;19931;-81
2021/12/27 09:02:25;;;;;;;;;;;;;;;9.14;100.00;96818.03;5057657;28;19933;-81
2021/12/27 09:04:55;;;;;;;;;;;;;;;8.92;100.00;96828.56;5058295;28;19924;-81
2021/12/27 09:07:22;;;;;;;;;;;;;;;9.26;100.00;96823.88;5073495;28;20006;-80
2021/12/27 09:09:52;;;;;;;;;;;;;;;9.28;100.00;96811.03;5073893;28;20019;-81
2021/12/27 09:12:19;;;;;;;;;;;;;;;9.33;100.00;96815.19;5055800;28;19924;-81
2021/12/27 09:14:46;;;;;;;;;;;;;;;9.16;100.00;96807.16;5067386;28;20384;-81
2021/12/27 09:17:14;;;;;;;;;;;;;;;9.12;100.00;96798.22;5055935;28;19964;-81
2021/12/27 09:19:42;;;;;;;;;;;;;;;9.24;100.00;96792.94;5053743;28;19951;-81
2021/12/27 09:22:10;;;;;;;;;;;;;;;9.07;100.00;96793.25;5038043;28;19925;-82
2021/12/27 09:24:38;;;;;;;;;;;;;;;8.70;100.00;96794.56;5056224;28;19932;-88
2021/12/27 09:27:06;;;;;;;;;;;;;;;8.77;100.00;96788.69;5038005;28;20368;-87
2021/12/27 09:29:36;;;;;;;;;;;;;;;8.16;100.00;96783.41;5042826;28;20284;-87
2021/12/27 09:32:04;;;;;;;;;;;;;;;8.08;100.00;96778.59;5074824;28;19924;-83
2021/12/27 09:34:32;;;;;;;;;;;;;;;8.04;100.00;96780.75;5055443;28;19963;-83
2021/12/27 09:36:59;;;;;;;;;;;;;;;7.83;100.00;96787.94;5038656;28;19924;-82
2021/12/27 09:39:27;;;;;;;;;;;;;;;7.76;100.00;96801.38;5042562;28;19974;-82
2021/12/27 09:41:57;;;;;;;;;;;;;;;7.79;100.00;96798.47;5026990;28;19924;-84
2021/12/27 09:44:24;;;;;;;;;;;;;;;7.72;100.00;96792.41;5059419;28;19924;-86
2021/12/27 09:46:52;;;;;;;;;;;;;;;7.65;100.00;96787.91;5042766;28;20016;-85
2021/12/27 09:49:20;;;;;;;;;;;;;;;7.91;100.00;96780.88;5025992;28;19924;-86
2021/12/27 09:51:51;;;;;;;;;;;;;;;7.54;100.00;96789.56;5059192;28;20263;-87
2021/12/27 09:54:18;;;;;;;;;;;;;;;8.04;100.00;96784.28;5027482;28;20375;-84
2021/12/27 09:56:49;;;;;;;;;;;;;;;7.58;100.00;96770.75;5059824;28;19924;-87
2021/12/27 09:59:18;;;;;;;;;;;;;;;7.61;100.00;96776.16;5058210;28;19931;-86
2021/12/27 10:01:46;;;;;;;;;;;;;;;7.59;100.00;96778.63;5076783;28;20011;-85
2021/12/27 10:04:15;;;;;;;;;;;;;;;7.75;100.00;96778.38;5035127;28;19971;-87
2021/12/27 10:06:44;;;;;;;;;;;;;;;7.61;100.00;96792.06;5006296;28;20392;-85
2021/12/27 10:09:13;;;;;;;;;;;;;;;7.56;100.00;96795.47;5038683;28;19964;-83
2021/12/27 10:11:46;;;;;;;;;;;;;;;7.90;100.00;96798.81;5046869;28;19931;-84
2021/12/27 10:14:21;;;;;;;;;;;;;;;7.48;100.00;96794.19;5023899;28;20311;-83
2021/12/27 10:17:10;;;;;;;;;;;;;;;7.46;100.00;96800.19;5059107;28;20015;-80
2021/12/27 10:19:37;;;;;;;;;;;;;;;7.68;100.00;96800.88;5052377;28;20426;-81
2021/12/27 10:22:09;;;;;;;;;;;;;;;7.69;100.00;96802.44;5049307;28;19924;-81
2021/12/27 10:24:36;;;;;;;;;;;;;;;7.60;100.00;96788.53;5005918;28;20066;-80
2021/12/27 10:27:03;;;;;;;;;;;;;;;7.58;100.00;96793.75;5049317;28;20368;-79
2021/12/27 10:29:35;;;;;;;;;;;;;;;7.69;100.00;96799.69;5067960;28;19929;-81
2021/12/27 10:32:06;;;;;;;;;;;;;;;7.39;100.00;96797.72;5038675;28;20383;-82
2021/12/27 10:34:33;;;;;;;;;;;;;;;7.53;100.00;96801.94;5040698;28;20038;-82
2021/12/27 10:37:19;;;;;;;;;;;;;;;7.46;100.00;96791.88;5050691;28;20257;-81
2021/12/27 10:39:48;;;;;;;;;;;;;;;7.47;100.00;96776.72;5025318;28;19963;-84
2021/12/27 10:42:20;;;;;;;;;;;;;;;7.66;100.00;96775.56;5058188;28;19924;-80
2021/12/27 10:44:51;;;;;;;;;;;;;;;7.70;100.00;96780.97;5042120;28;19925;-81
2021/12/27 10:47:38;;;;;;;;;;;;;;;7.79;100.00;96770.66;5058068;28;20026;-79
2021/12/27 10:50:07;;;;;;;;;;;;;;;7.76;100.00;96766.03;5073801;28;20318;-80
2021/12/27 10:52:58;;;;;;;;;;;;;;;7.83;100.00;96753.84;5066210;28;19924;-86
2021/12/27 11:04:39;;;;;;;;;;;;;;;7.36;100.00;96746.59;5075101;28;19923;-80
2021/12/27 11:08:20;;;;;;;;;;;;;;;7.38;100.00;96738.59;5074976;28;20006;-76
2021/12/27 11:10:50;;;;;;;;;;;;;;;7.30;100.00;96733.75;5068442;28;19943;-76
2021/12/27 11:13:18;;;;;;;;;;;;;;;7.77;100.00;96739.00;5078818;28;19924;-80
2021/12/27 11:15:45;;;;;;;;;;;;;;;7.80;100.00;96736.06;5080735;28;19924;-81
2021/12/27 11:18:19;;;;;;;;;;;;;;;7.97;100.00;96737.34;5055657;28;19931;-76
2021/12/27 11:22:35;;;;;;;;;;;;;;;7.69;100.00;96727.41;4994219;28;19932;-81
2021/12/27 11:25:36;;;;;;;;;;;;;;;7.64;100.00;96728.00;4978692;28;19938;-79
2021/12/27 11:29:10;;;;;;;;;;;;;;;7.65;100.00;96720.44;4991874;28;20053;-79
2021/12/27 11:31:38;;;;;;;;;;;;;;;7.55;100.00;96716.09;4965634;28;19942;-79
2021/12/27 11:34:07;;;;;;;;;;;;;;;7.66;100.00;96714.44;4964556;28;19934;-79
2021/12/27 11:36:37;;;;;;;;;;;;;;;7.90;100.00;96709.84;4990823;28;20320;-79
2021/12/27 11:39:23;;;;;;;;;;;;;;;7.64;100.00;96708.56;4992512;28;20352;-79
2021/12/27 11:42:10;;;;;;;;;;;;;;;7.51;100.00;96705.13;4979988;28;19949;-79
2021/12/27 11:44:43;;;;;;;;;;;;;;;7.91;100.00;96693.91;4992863;28;19972;-79
2021/12/27 11:47:24;;;;;;;;;;;;;;;7.81;100.00;96681.25;4960561;28;19930;-80
2021/12/27 11:49:55;;;;;;;;;;;;;;;7.39;100.00;96686.59;4992733;28;19978;-79
2021/12/27 11:52:31;;;;;;;;;;;;;;;7.75;100.00;96691.44;4974326;28;19930;-79
2021/12/27 11:55:00;;;;;;;;;;;;;;;7.77;100.00;96686.94;4982548;28;19926;-79
2021/12/27 11:57:41;;;;;;;;;;;;;;;7.87;100.00;96685.75;4998273;28;19925;-79
2021/12/27 12:00:16;;;;;;;;;;;;;;;7.88;100.00;96676.16;5054446;28;19928;-77
2021/12/27 12:02:47;;;;;;;;;;;;;;;7.71;100.00;96674.91;5069479;28;19997;-78
2021/12/27 12:05:33;;;;;;;;;;;;;;;7.62;100.00;96680.44;5056627;28;19995;-78
2021/12/27 12:08:02;;;;;;;;;;;;;;;7.77;100.00;96672.28;5058383;28;20009;-81
2021/12/27 12:10:31;;;;;;;;;;;;;;;7.82;100.00;96664.09;5071956;28;19931;-79
2021/12/27 12:13:25;;;;;;;;;;;;;;;7.83;100.00;96668.41;5064115;28;20013;-80
2021/12/27 12:16:00;;;;;;;;;;;;;;;8.00;100.00;96661.34;5047542;28;19924;-79
2021/12/27 12:18:28;;;;;;;;;;;;;;;7.98;100.00;96661.00;5053001;28;20017;-77
2021/12/27 12:20:55;;;;;;;;;;;;;;;7.78;100.00;96657.16;5074421;28;19924;-78
2021/12/27 12:23:29;;;;;;;;;;;;;;;7.69;100.00;96655.16;5072693;28;20019;-78
2021/12/27 12:25:59;;;;;;;;;;;;;;;7.83;100.00;96654.53;5075899;28;19924;-78
2021/12/27 12:28:28;;;;;;;;;;;;;;;8.05;100.00;96638.47;5043997;28;19975;-78
2021/12/27 12:30:56;;;;;;;;;;;;;;;7.83;100.00;96648.97;5056257;28;19936;-80
2021/12/27 12:33:24;;;;;;;;;;;;;;;7.87;100.00;96638.47;5376469;22;19933;-78
2021/12/27 12:35:57;;;;;;;;;;;;;;;7.69;100.00;96627.34;5046534;28;19929;-77
2021/12/27 12:38:27;;;;;;;;;;;;;;;7.94;100.00;96627.03;5049326;28;19929;-77
2021/12/27 12:40:59;;;;;;;;;;;;;;;7.95;100.00;96627.81;5048523;28;20090;-79
2021/12/27 12:43:35;;;;;;;;;;;;;;;8.00;100.00;96619.63;5047886;28;19928;-79
2021/12/27 12:46:10;;;;;;;;;;;;;;;7.86;100.00;96608.38;5032988;28;20279;-77
2021/12/27 12:48:37;;;;;;;;;;;;;;;7.83;100.00;96615.59;5051739;28;19932;-76
2021/12/27 12:51:04;;;;;;;;;;;;;;;7.85;100.00;96613.16;5051778;28;19931;-77
2021/12/27 12:53:33;;;;;;;;;;;;;;;7.76;100.00;96604.81;5049145;28;19928;-78
2021/12/27 12:56:02;;;;;;;;;;;;;;;8.12;100.00;96593.66;5045163;28;19979;-77
2021/12/27 12:58:31;;;;;;;;;;;;;;;8.39;100.00;96598.44;5052401;28;20019;-78
2021/12/27 13:01:01;;;;;;;;;;;;;;;7.98;100.00;96597.06;5049994;28;19929;-76
2021/12/27 13:03:29;;;;;;;;;;;;;;;8.05;100.00;96596.75;5052384;28;20393;-76
2021/12/27 13:06:00;;;;;;;;;;;;;;;7.80;100.00;96594.28;5064196;28;20071;-76
2021/12/27 13:08:27;;;;;;;;;;;;;;;8.21;100.00;96596.41;5043113;28;19929;-76
2021/12/27 13:10:58;;;;;;;;;;;;;;;8.11;100.00;96591.34;5052835;28;19960;-76
2021/12/27 13:13:25;;;;;;;;;;;;;;;8.25;100.00;96585.94;5053152;28;19958;-76
2021/12/27 13:15:56;;;;;;;;;;;;;;;8.17;100.00;96584.69;5053892;28;19983;-76